sensor_id;sensor_type;location;lat;lon;timestamp;P1;durP1;ratioP1;P2;durP2;ratioP2
67130;SDS011;54051;53.464;49.532;2022-07-11T00:00:55;17.98;;;13.18;;
67130;SDS011;54051;53.464;49.532;2022-07-11T00:03:25;16.63;;;12.82;;
67130;SDS011;54051;53.464;49.532;2022-07-11T00:13:56;16.35;;;12.90;;
67130;SDS011;54051;53.464;49.532;2022-07-11T00:24:27;22.92;;;13.15;;
67130;SDS011;54051;53.464;49.532;2022-07-11T00:43:30;16.95;;;12.23;;
67130;SDS011;54051;53.464;49.532;2022-07-11T00:51:02;16.90;;;12.80;;
67130;SDS011;54051;53.464;49.532;2022-07-11T00:53:29;17.02;;;12.18;;
67130;SDS011;54051;53.464;49.532;2022-07-11T00:55:56;15.95;;;12.25;;
67130;SDS011;54051;53.464;49.532;2022-07-11T01:11:47;14.95;;;11.57;;
67130;SDS011;54051;53.464;49.532;2022-07-11T01:16:46;17.40;;;11.75;;
67130;SDS011;54051;53.464;49.532;2022-07-11T01:19:13;16.27;;;11.75;;
67130;SDS011;54051;53.464;49.532;2022-07-11T01:21:40;16.50;;;11.82;;
67130;SDS011;54051;53.464;49.532;2022-07-11T01:24:16;16.02;;;11.65;;
67130;SDS011;54051;53.464;49.532;2022-07-11T01:29:23;14.23;;;11.70;;
67130;SDS011;54051;53.464;49.532;2022-07-11T01:51:25;15.85;;;11.98;;
67130;SDS011;54051;53.464;49.532;2022-07-11T01:53:51;16.33;;;11.90;;
67130;SDS011;54051;53.464;49.532;2022-07-11T01:56:18;14.70;;;11.80;;
67130;SDS011;54051;53.464;49.532;2022-07-11T02:04:18;14.45;;;11.00;;
67130;SDS011;54051;53.464;49.532;2022-07-11T02:06:45;15.85;;;10.70;;
67130;SDS011;54051;53.464;49.532;2022-07-11T02:09:11;14.30;;;10.18;;
67130;SDS011;54051;53.464;49.532;2022-07-11T02:11:37;12.75;;;10.25;;
67130;SDS011;54051;53.464;49.532;2022-07-11T02:14:05;13.52;;;10.63;;
67130;SDS011;54051;53.464;49.532;2022-07-11T02:16:31;13.02;;;9.93;;
67130;SDS011;54051;53.464;49.532;2022-07-11T02:18:57;12.90;;;10.07;;
67130;SDS011;54051;53.464;49.532;2022-07-11T02:21:23;12.57;;;10.00;;
67130;SDS011;54051;53.464;49.532;2022-07-11T02:23:50;13.80;;;9.77;;
67130;SDS011;54051;53.464;49.532;2022-07-11T02:26:16;12.20;;;10.27;;
67130;SDS011;54051;53.464;49.532;2022-07-11T02:28:42;12.70;;;9.98;;
67130;SDS011;54051;53.464;49.532;2022-07-11T02:31:08;13.20;;;10.10;;
67130;SDS011;54051;53.464;49.532;2022-07-11T02:33:34;11.45;;;9.60;;
67130;SDS011;54051;53.464;49.532;2022-07-11T02:36:00;11.32;;;9.55;;
67130;SDS011;54051;53.464;49.532;2022-07-11T02:38:26;12.63;;;10.02;;
67130;SDS011;54051;53.464;49.532;2022-07-11T02:40:52;11.52;;;9.52;;
67130;SDS011;54051;53.464;49.532;2022-07-11T02:43:19;12.10;;;9.55;;
67130;SDS011;54051;53.464;49.532;2022-07-11T02:45:45;12.00;;;9.80;;
67130;SDS011;54051;53.464;49.532;2022-07-11T02:48:11;13.88;;;9.50;;
67130;SDS011;54051;53.464;49.532;2022-07-11T02:50:37;12.32;;;9.45;;
67130;SDS011;54051;53.464;49.532;2022-07-11T02:53:03;13.07;;;9.40;;
67130;SDS011;54051;53.464;49.532;2022-07-11T02:57:56;11.15;;;9.27;;
67130;SDS011;54051;53.464;49.532;2022-07-11T03:00:22;10.02;;;8.82;;
67130;SDS011;54051;53.464;49.532;2022-07-11T03:05:14;10.85;;;9.60;;
67130;SDS011;54051;53.464;49.532;2022-07-11T03:10:06;12.10;;;8.93;;
67130;SDS011;54051;53.464;49.532;2022-07-11T03:12:32;11.50;;;9.05;;
67130;SDS011;54051;53.464;49.532;2022-07-11T03:17:24;12.07;;;8.90;;
67130;SDS011;54051;53.464;49.532;2022-07-11T03:22:16;10.25;;;8.75;;
67130;SDS011;54051;53.464;49.532;2022-07-11T03:24:42;11.23;;;9.15;;
67130;SDS011;54051;53.464;49.532;2022-07-11T03:27:08;11.95;;;9.18;;
67130;SDS011;54051;53.464;49.532;2022-07-11T03:29:35;11.10;;;9.27;;
67130;SDS011;54051;53.464;49.532;2022-07-11T03:32:01;10.85;;;9.20;;
67130;SDS011;54051;53.464;49.532;2022-07-11T03:34:27;11.82;;;9.52;;
67130;SDS011;54051;53.464;49.532;2022-07-11T03:36:53;11.75;;;9.38;;
67130;SDS011;54051;53.464;49.532;2022-07-11T03:39:20;11.88;;;9.60;;
67130;SDS011;54051;53.464;49.532;2022-07-11T03:41:49;11.88;;;9.57;;
67130;SDS011;54051;53.464;49.532;2022-07-11T03:44:15;14.18;;;9.45;;
67130;SDS011;54051;53.464;49.532;2022-07-11T03:46:41;11.32;;;8.95;;
67130;SDS011;54051;53.464;49.532;2022-07-11T03:49:07;11.40;;;8.98;;
67130;SDS011;54051;53.464;49.532;2022-07-11T03:51:34;12.82;;;9.05;;
67130;SDS011;54051;53.464;49.532;2022-07-11T03:54:00;12.07;;;9.02;;
67130;SDS011;54051;53.464;49.532;2022-07-11T03:56:26;11.02;;;8.38;;
67130;SDS011;54051;53.464;49.532;2022-07-11T03:58:52;11.07;;;8.38;;
67130;SDS011;54051;53.464;49.532;2022-07-11T04:01:18;13.50;;;8.50;;
67130;SDS011;54051;53.464;49.532;2022-07-11T04:03:46;11.35;;;8.32;;
67130;SDS011;54051;53.464;49.532;2022-07-11T04:06:13;9.20;;;8.07;;
67130;SDS011;54051;53.464;49.532;2022-07-11T04:08:40;12.68;;;8.98;;
67130;SDS011;54051;53.464;49.532;2022-07-11T04:11:06;10.55;;;8.82;;
67130;SDS011;54051;53.464;49.532;2022-07-11T04:13:34;12.10;;;8.85;;
67130;SDS011;54051;53.464;49.532;2022-07-11T04:16:00;10.95;;;9.30;;
67130;SDS011;54051;53.464;49.532;2022-07-11T04:18:26;12.10;;;8.55;;
67130;SDS011;54051;53.464;49.532;2022-07-11T04:20:52;11.05;;;9.05;;
67130;SDS011;54051;53.464;49.532;2022-07-11T04:23:18;10.80;;;8.60;;
67130;SDS011;54051;53.464;49.532;2022-07-11T04:25:44;10.15;;;8.70;;
67130;SDS011;54051;53.464;49.532;2022-07-11T04:28:10;10.68;;;8.98;;
67130;SDS011;54051;53.464;49.532;2022-07-11T04:30:36;10.27;;;8.02;;
67130;SDS011;54051;53.464;49.532;2022-07-11T04:33:02;10.45;;;8.80;;
67130;SDS011;54051;53.464;49.532;2022-07-11T04:35:29;10.48;;;8.85;;
67130;SDS011;54051;53.464;49.532;2022-07-11T04:37:56;12.38;;;8.82;;
67130;SDS011;54051;53.464;49.532;2022-07-11T04:40:22;11.25;;;8.40;;
67130;SDS011;54051;53.464;49.532;2022-07-11T04:42:52;11.00;;;8.82;;
67130;SDS011;54051;53.464;49.532;2022-07-11T04:45:18;12.32;;;9.00;;
67130;SDS011;54051;53.464;49.532;2022-07-11T04:47:44;11.45;;;8.77;;
67130;SDS011;54051;53.464;49.532;2022-07-11T04:50:10;10.93;;;9.30;;
67130;SDS011;54051;53.464;49.532;2022-07-11T04:52:36;12.60;;;9.20;;
67130;SDS011;54051;53.464;49.532;2022-07-11T04:55:03;12.32;;;9.00;;
67130;SDS011;54051;53.464;49.532;2022-07-11T04:57:29;12.48;;;9.43;;
67130;SDS011;54051;53.464;49.532;2022-07-11T04:59:55;11.45;;;9.32;;
67130;SDS011;54051;53.464;49.532;2022-07-11T05:02:21;10.40;;;9.00;;
67130;SDS011;54051;53.464;49.532;2022-07-11T05:04:47;13.32;;;9.75;;
67130;SDS011;54051;53.464;49.532;2022-07-11T05:07:13;12.18;;;9.52;;
67130;SDS011;54051;53.464;49.532;2022-07-11T05:09:40;13.05;;;9.20;;
67130;SDS011;54051;53.464;49.532;2022-07-11T05:12:06;12.10;;;9.35;;
67130;SDS011;54051;53.464;49.532;2022-07-11T05:14:33;13.88;;;9.68;;
67130;SDS011;54051;53.464;49.532;2022-07-11T05:16:59;13.20;;;9.88;;
67130;SDS011;54051;53.464;49.532;2022-07-11T05:19:25;14.15;;;9.63;;
67130;SDS011;54051;53.464;49.532;2022-07-11T05:21:51;13.18;;;9.40;;
67130;SDS011;54051;53.464;49.532;2022-07-11T05:24:17;11.05;;;9.38;;
67130;SDS011;54051;53.464;49.532;2022-07-11T05:26:44;11.68;;;9.02;;
67130;SDS011;54051;53.464;49.532;2022-07-11T05:29:10;14.65;;;9.63;;
67130;SDS011;54051;53.464;49.532;2022-07-11T05:31:36;14.45;;;10.35;;
67130;SDS011;54051;53.464;49.532;2022-07-11T05:34:02;11.38;;;10.00;;
67130;SDS011;54051;53.464;49.532;2022-07-11T05:36:28;14.10;;;10.05;;
67130;SDS011;54051;53.464;49.532;2022-07-11T05:38:54;14.13;;;10.20;;
67130;SDS011;54051;53.464;49.532;2022-07-11T05:41:20;13.30;;;10.35;;
67130;SDS011;54051;53.464;49.532;2022-07-11T05:43:46;16.70;;;10.55;;
67130;SDS011;54051;53.464;49.532;2022-07-11T05:46:14;11.30;;;10.20;;
67130;SDS011;54051;53.464;49.532;2022-07-11T05:48:40;12.23;;;10.40;;
67130;SDS011;54051;53.464;49.532;2022-07-11T05:51:06;15.98;;;10.27;;
67130;SDS011;54051;53.464;49.532;2022-07-11T05:53:32;12.73;;;10.10;;
67130;SDS011;54051;53.464;49.532;2022-07-11T05:55:58;12.70;;;10.27;;
67130;SDS011;54051;53.464;49.532;2022-07-11T05:58:24;17.77;;;10.90;;
67130;SDS011;54051;53.464;49.532;2022-07-11T06:00:50;15.48;;;10.75;;
67130;SDS011;54051;53.464;49.532;2022-07-11T06:03:16;13.68;;;11.00;;
67130;SDS011;54051;53.464;49.532;2022-07-11T06:05:42;14.80;;;11.00;;
67130;SDS011;54051;53.464;49.532;2022-07-11T06:08:08;13.95;;;11.05;;
67130;SDS011;54051;53.464;49.532;2022-07-11T06:10:52;14.23;;;10.98;;
67130;SDS011;54051;53.464;49.532;2022-07-11T06:13:18;12.82;;;10.75;;
67130;SDS011;54051;53.464;49.532;2022-07-11T06:15:44;12.95;;;11.35;;
67130;SDS011;54051;53.464;49.532;2022-07-11T06:18:12;12.35;;;10.95;;
67130;SDS011;54051;53.464;49.532;2022-07-11T06:20:38;12.15;;;10.85;;
67130;SDS011;54051;53.464;49.532;2022-07-11T06:23:04;12.32;;;11.02;;
67130;SDS011;54051;53.464;49.532;2022-07-11T06:25:31;13.57;;;10.77;;
67130;SDS011;54051;53.464;49.532;2022-07-11T06:27:58;13.27;;;11.00;;
67130;SDS011;54051;53.464;49.532;2022-07-11T06:30:24;14.23;;;11.27;;
67130;SDS011;54051;53.464;49.532;2022-07-11T06:32:50;14.70;;;11.63;;
67130;SDS011;54051;53.464;49.532;2022-07-11T06:35:16;13.60;;;11.50;;
67130;SDS011;54051;53.464;49.532;2022-07-11T06:37:42;13.68;;;11.25;;
67130;SDS011;54051;53.464;49.532;2022-07-11T06:40:08;13.00;;;11.27;;
67130;SDS011;54051;53.464;49.532;2022-07-11T06:42:36;12.98;;;11.65;;
67130;SDS011;54051;53.464;49.532;2022-07-11T06:45:03;14.35;;;11.43;;
67130;SDS011;54051;53.464;49.532;2022-07-11T06:47:30;14.18;;;11.02;;
67130;SDS011;54051;53.464;49.532;2022-07-11T06:49:58;13.23;;;11.80;;
67130;SDS011;54051;53.464;49.532;2022-07-11T06:52:24;12.60;;;11.30;;
67130;SDS011;54051;53.464;49.532;2022-07-11T06:54:50;13.90;;;11.65;;
67130;SDS011;54051;53.464;49.532;2022-07-11T06:57:16;17.38;;;11.75;;
67130;SDS011;54051;53.464;49.532;2022-07-11T06:59:42;12.88;;;11.48;;
67130;SDS011;54051;53.464;49.532;2022-07-11T07:02:08;13.93;;;11.88;;
67130;SDS011;54051;53.464;49.532;2022-07-11T07:04:33;14.02;;;11.43;;
67130;SDS011;54051;53.464;49.532;2022-07-11T07:07:00;13.35;;;11.85;;
67130;SDS011;54051;53.464;49.532;2022-07-11T07:09:27;15.98;;;11.10;;
67130;SDS011;54051;53.464;49.532;2022-07-11T07:11:53;15.38;;;11.95;;
67130;SDS011;54051;53.464;49.532;2022-07-11T07:14:20;16.70;;;11.30;;
67130;SDS011;54051;53.464;49.532;2022-07-11T07:16:47;13.07;;;11.20;;
67130;SDS011;54051;53.464;49.532;2022-07-11T07:19:13;13.57;;;10.63;;
67130;SDS011;54051;53.464;49.532;2022-07-11T07:21:39;13.20;;;10.18;;
67130;SDS011;54051;53.464;49.532;2022-07-11T07:24:05;15.55;;;9.70;;
67130;SDS011;54051;53.464;49.532;2022-07-11T07:26:32;11.68;;;9.82;;
67130;SDS011;54051;53.464;49.532;2022-07-11T07:28:58;13.48;;;9.43;;
67130;SDS011;54051;53.464;49.532;2022-07-11T07:31:24;10.27;;;9.07;;
67130;SDS011;54051;53.464;49.532;2022-07-11T07:33:50;10.20;;;9.00;;
67130;SDS011;54051;53.464;49.532;2022-07-11T07:36:16;10.90;;;9.23;;
67130;SDS011;54051;53.464;49.532;2022-07-11T07:38:43;12.20;;;8.75;;
67130;SDS011;54051;53.464;49.532;2022-07-11T07:41:15;10.07;;;9.07;;
67130;SDS011;54051;53.464;49.532;2022-07-11T07:43:41;13.27;;;9.13;;
67130;SDS011;54051;53.464;49.532;2022-07-11T07:46:11;12.38;;;8.93;;
67130;SDS011;54051;53.464;49.532;2022-07-11T07:48:37;11.52;;;9.52;;
67130;SDS011;54051;53.464;49.532;2022-07-11T07:51:06;14.30;;;9.52;;
67130;SDS011;54051;53.464;49.532;2022-07-11T07:53:33;9.93;;;8.93;;
67130;SDS011;54051;53.464;49.532;2022-07-11T07:55:59;12.43;;;9.35;;
67130;SDS011;54051;53.464;49.532;2022-07-11T07:58:26;10.70;;;9.05;;
67130;SDS011;54051;53.464;49.532;2022-07-11T08:00:52;12.63;;;9.50;;
67130;SDS011;54051;53.464;49.532;2022-07-11T08:03:36;12.93;;;9.05;;
67130;SDS011;54051;53.464;49.532;2022-07-11T08:06:02;11.32;;;9.05;;
67130;SDS011;54051;53.464;49.532;2022-07-11T08:08:28;9.52;;;8.30;;
67130;SDS011;54051;53.464;49.532;2022-07-11T08:10:55;9.85;;;8.15;;
67130;SDS011;54051;53.464;49.532;2022-07-11T08:13:21;11.82;;;8.68;;
67130;SDS011;54051;53.464;49.532;2022-07-11T08:15:47;14.13;;;8.80;;
67130;SDS011;54051;53.464;49.532;2022-07-11T08:18:13;11.73;;;8.85;;
67130;SDS011;54051;53.464;49.532;2022-07-11T08:20:39;11.30;;;9.02;;
67130;SDS011;54051;53.464;49.532;2022-07-11T08:23:05;11.45;;;8.90;;
67130;SDS011;54051;53.464;49.532;2022-07-11T08:25:31;9.75;;;8.27;;
67130;SDS011;54051;53.464;49.532;2022-07-11T08:27:57;12.05;;;8.73;;
67130;SDS011;54051;53.464;49.532;2022-07-11T08:30:26;11.35;;;8.60;;
67130;SDS011;54051;53.464;49.532;2022-07-11T08:32:52;10.88;;;8.73;;
67130;SDS011;54051;53.464;49.532;2022-07-11T08:35:18;11.82;;;8.65;;
67130;SDS011;54051;53.464;49.532;2022-07-11T08:37:44;11.40;;;9.20;;
67130;SDS011;54051;53.464;49.532;2022-07-11T08:40:11;12.80;;;9.30;;
67130;SDS011;54051;53.464;49.532;2022-07-11T08:42:39;13.00;;;9.02;;
67130;SDS011;54051;53.464;49.532;2022-07-11T08:45:07;10.48;;;9.27;;
67130;SDS011;54051;53.464;49.532;2022-07-11T08:47:39;10.93;;;9.77;;
67130;SDS011;54051;53.464;49.532;2022-07-11T08:50:06;13.35;;;9.77;;
67130;SDS011;54051;53.464;49.532;2022-07-11T08:52:34;11.60;;;9.65;;
67130;SDS011;54051;53.464;49.532;2022-07-11T08:55:02;10.60;;;9.23;;
67130;SDS011;54051;53.464;49.532;2022-07-11T08:57:34;11.43;;;9.52;;
67130;SDS011;54051;53.464;49.532;2022-07-11T09:00:02;10.63;;;8.75;;
67130;SDS011;54051;53.464;49.532;2022-07-11T09:02:31;11.00;;;9.30;;
67130;SDS011;54051;53.464;49.532;2022-07-11T09:04:59;11.15;;;9.57;;
67130;SDS011;54051;53.464;49.532;2022-07-11T09:07:28;13.02;;;9.23;;
67130;SDS011;54051;53.464;49.532;2022-07-11T09:09:54;12.00;;;9.02;;
67130;SDS011;54051;53.464;49.532;2022-07-11T09:12:20;11.82;;;9.02;;
67130;SDS011;54051;53.464;49.532;2022-07-11T09:14:47;9.65;;;8.65;;
67130;SDS011;54051;53.464;49.532;2022-07-11T09:17:14;11.07;;;8.88;;
67130;SDS011;54051;53.464;49.532;2022-07-11T09:19:40;11.65;;;8.55;;
67130;SDS011;54051;53.464;49.532;2022-07-11T09:22:10;10.25;;;8.43;;
67130;SDS011;54051;53.464;49.532;2022-07-11T09:24:59;10.45;;;8.27;;
67130;SDS011;54051;53.464;49.532;2022-07-11T09:28:05;10.73;;;8.55;;
67130;SDS011;54051;53.464;49.532;2022-07-11T09:30:32;10.68;;;8.30;;
67130;SDS011;54051;53.464;49.532;2022-07-11T09:33:05;10.90;;;8.18;;
67130;SDS011;54051;53.464;49.532;2022-07-11T09:35:36;12.07;;;7.90;;
67130;SDS011;54051;53.464;49.532;2022-07-11T09:38:05;9.35;;;7.85;;
67130;SDS011;54051;53.464;49.532;2022-07-11T09:40:36;10.95;;;7.65;;
67130;SDS011;54051;53.464;49.532;2022-07-11T09:43:02;10.13;;;7.80;;
67130;SDS011;54051;53.464;49.532;2022-07-11T09:45:32;7.90;;;6.97;;
67130;SDS011;54051;53.464;49.532;2022-07-11T09:48:01;8.80;;;7.05;;
67130;SDS011;54051;53.464;49.532;2022-07-11T09:50:39;10.40;;;7.28;;
67130;SDS011;54051;53.464;49.532;2022-07-11T09:53:19;10.07;;;7.20;;
67130;SDS011;54051;53.464;49.532;2022-07-11T09:55:45;10.35;;;7.05;;
67130;SDS011;54051;53.464;49.532;2022-07-11T09:58:12;9.05;;;7.25;;
67130;SDS011;54051;53.464;49.532;2022-07-11T10:00:40;9.88;;;6.78;;
67130;SDS011;54051;53.464;49.532;2022-07-11T10:03:08;9.10;;;7.13;;
67130;SDS011;54051;53.464;49.532;2022-07-11T10:05:35;8.75;;;7.07;;
67130;SDS011;54051;53.464;49.532;2022-07-11T10:08:03;11.27;;;7.30;;
67130;SDS011;54051;53.464;49.532;2022-07-11T10:10:30;8.13;;;6.85;;
67130;SDS011;54051;53.464;49.532;2022-07-11T10:12:57;8.98;;;6.32;;
67130;SDS011;54051;53.464;49.532;2022-07-11T10:15:34;10.10;;;6.53;;
67130;SDS011;54051;53.464;49.532;2022-07-11T10:23:14;9.27;;;6.25;;
67130;SDS011;54051;53.464;49.532;2022-07-11T10:25:49;8.63;;;6.70;;
67130;SDS011;54051;53.464;49.532;2022-07-11T10:28:55;10.68;;;7.00;;
67130;SDS011;54051;53.464;49.532;2022-07-11T10:31:27;7.75;;;6.50;;
67130;SDS011;54051;53.464;49.532;2022-07-11T10:34:02;9.38;;;6.90;;
67130;SDS011;54051;53.464;49.532;2022-07-11T10:36:30;11.38;;;6.60;;
67130;SDS011;54051;53.464;49.532;2022-07-11T10:42:00;9.48;;;6.82;;
67130;SDS011;54051;53.464;49.532;2022-07-11T10:44:29;7.53;;;6.70;;
67130;SDS011;54051;53.464;49.532;2022-07-11T10:50:03;7.25;;;6.07;;
67130;SDS011;54051;53.464;49.532;2022-07-11T10:52:46;10.40;;;6.88;;
67130;SDS011;54051;53.464;49.532;2022-07-11T10:58:07;8.88;;;7.50;;
67130;SDS011;54051;53.464;49.532;2022-07-11T11:00:44;9.88;;;7.50;;
67130;SDS011;54051;53.464;49.532;2022-07-11T11:03:10;8.90;;;7.07;;
67130;SDS011;54051;53.464;49.532;2022-07-11T11:05:52;8.95;;;7.07;;
67130;SDS011;54051;53.464;49.532;2022-07-11T11:11:02;8.43;;;6.95;;
67130;SDS011;54051;53.464;49.532;2022-07-11T11:13:30;8.90;;;6.95;;
67130;SDS011;54051;53.464;49.532;2022-07-11T11:15:59;8.27;;;6.80;;
67130;SDS011;54051;53.464;49.532;2022-07-11T11:18:30;9.40;;;7.43;;
67130;SDS011;54051;53.464;49.532;2022-07-11T11:28:31;8.25;;;7.10;;
67130;SDS011;54051;53.464;49.532;2022-07-11T11:30:58;8.50;;;7.05;;
67130;SDS011;54051;53.464;49.532;2022-07-11T11:33:29;8.45;;;6.80;;
67130;SDS011;54051;53.464;49.532;2022-07-11T11:38:36;12.05;;;7.28;;
67130;SDS011;54051;53.464;49.532;2022-07-11T11:41:03;8.60;;;6.97;;
67130;SDS011;54051;53.464;49.532;2022-07-11T11:43:33;9.55;;;6.97;;
67130;SDS011;54051;53.464;49.532;2022-07-11T11:46:01;9.63;;;7.15;;
67130;SDS011;54051;53.464;49.532;2022-07-11T11:48:28;9.07;;;7.00;;
67130;SDS011;54051;53.464;49.532;2022-07-11T11:53:37;10.02;;;7.03;;
67130;SDS011;54051;53.464;49.532;2022-07-11T11:56:11;8.63;;;6.80;;
67130;SDS011;54051;53.464;49.532;2022-07-11T11:58:42;9.63;;;6.72;;
67130;SDS011;54051;53.464;49.532;2022-07-11T12:01:10;10.70;;;6.80;;
67130;SDS011;54051;53.464;49.532;2022-07-11T12:03:52;9.00;;;6.82;;
67130;SDS011;54051;53.464;49.532;2022-07-11T12:06:21;9.20;;;6.82;;
67130;SDS011;54051;53.464;49.532;2022-07-11T12:08:58;7.85;;;6.40;;
67130;SDS011;54051;53.464;49.532;2022-07-11T12:11:25;9.80;;;6.38;;
67130;SDS011;54051;53.464;49.532;2022-07-11T12:13:57;8.35;;;6.60;;
67130;SDS011;54051;53.464;49.532;2022-07-11T12:16:27;8.73;;;6.70;;
67130;SDS011;54051;53.464;49.532;2022-07-11T12:19:07;9.18;;;6.80;;
67130;SDS011;54051;53.464;49.532;2022-07-11T12:21:41;8.13;;;6.80;;
67130;SDS011;54051;53.464;49.532;2022-07-11T12:24:10;7.63;;;6.25;;
67130;SDS011;54051;53.464;49.532;2022-07-11T12:26:46;8.35;;;6.22;;
67130;SDS011;54051;53.464;49.532;2022-07-11T12:29:19;8.50;;;6.05;;
67130;SDS011;54051;53.464;49.532;2022-07-11T12:31:50;7.13;;;6.10;;
67130;SDS011;54051;53.464;49.532;2022-07-11T12:34:22;7.25;;;6.20;;
67130;SDS011;54051;53.464;49.532;2022-07-11T12:36:50;6.72;;;5.65;;
67130;SDS011;54051;53.464;49.532;2022-07-11T12:39:31;8.88;;;5.30;;
67130;SDS011;54051;53.464;49.532;2022-07-11T12:42:00;8.57;;;5.55;;
67130;SDS011;54051;53.464;49.532;2022-07-11T12:44:53;7.40;;;6.10;;
67130;SDS011;54051;53.464;49.532;2022-07-11T12:47:40;8.77;;;6.28;;
67130;SDS011;54051;53.464;49.532;2022-07-11T12:52:39;7.30;;;5.90;;
67130;SDS011;54051;53.464;49.532;2022-07-11T12:55:07;9.00;;;5.70;;
67130;SDS011;54051;53.464;49.532;2022-07-11T12:57:38;7.05;;;5.68;;
67130;SDS011;54051;53.464;49.532;2022-07-11T13:00:11;8.18;;;5.85;;
67130;SDS011;54051;53.464;49.532;2022-07-11T13:02:49;8.07;;;5.32;;
67130;SDS011;54051;53.464;49.532;2022-07-11T13:05:15;7.95;;;5.88;;
67130;SDS011;54051;53.464;49.532;2022-07-11T13:07:42;7.60;;;6.10;;
67130;SDS011;54051;53.464;49.532;2022-07-11T13:10:26;7.20;;;5.88;;
67130;SDS011;54051;53.464;49.532;2022-07-11T13:13:13;7.55;;;6.15;;
67130;SDS011;54051;53.464;49.532;2022-07-11T13:15:39;8.45;;;6.50;;
67130;SDS011;54051;53.464;49.532;2022-07-11T13:18:06;8.20;;;6.60;;
67130;SDS011;54051;53.464;49.532;2022-07-11T13:20:33;8.18;;;6.75;;
67130;SDS011;54051;53.464;49.532;2022-07-11T13:23:00;9.15;;;6.60;;
67130;SDS011;54051;53.464;49.532;2022-07-11T13:25:26;7.72;;;6.38;;
67130;SDS011;54051;53.464;49.532;2022-07-11T13:27:54;10.82;;;6.95;;
67130;SDS011;54051;53.464;49.532;2022-07-11T13:30:21;8.57;;;6.38;;
67130;SDS011;54051;53.464;49.532;2022-07-11T13:32:52;8.15;;;6.70;;
67130;SDS011;54051;53.464;49.532;2022-07-11T13:35:18;8.07;;;6.47;;
67130;SDS011;54051;53.464;49.532;2022-07-11T13:37:46;7.68;;;6.57;;
67130;SDS011;54051;53.464;49.532;2022-07-11T13:40:16;10.30;;;7.05;;
67130;SDS011;54051;53.464;49.532;2022-07-11T13:42:44;9.38;;;6.78;;
67130;SDS011;54051;53.464;49.532;2022-07-11T13:45:12;8.98;;;7.07;;
67130;SDS011;54051;53.464;49.532;2022-07-11T13:47:39;9.55;;;7.03;;
67130;SDS011;54051;53.464;49.532;2022-07-11T13:50:06;8.73;;;7.00;;
67130;SDS011;54051;53.464;49.532;2022-07-11T13:52:33;8.85;;;7.25;;
67130;SDS011;54051;53.464;49.532;2022-07-11T13:55:00;11.20;;;7.45;;
67130;SDS011;54051;53.464;49.532;2022-07-11T13:57:26;9.15;;;7.00;;
67130;SDS011;54051;53.464;49.532;2022-07-11T13:59:53;9.77;;;7.10;;
67130;SDS011;54051;53.464;49.532;2022-07-11T14:02:21;9.45;;;7.47;;
67130;SDS011;54051;53.464;49.532;2022-07-11T14:04:48;9.02;;;7.35;;
67130;SDS011;54051;53.464;49.532;2022-07-11T14:07:14;9.98;;;7.32;;
67130;SDS011;54051;53.464;49.532;2022-07-11T14:12:06;10.13;;;7.43;;
67130;SDS011;54051;53.464;49.532;2022-07-11T14:14:33;10.77;;;8.05;;
67130;SDS011;54051;53.464;49.532;2022-07-11T14:17:00;10.15;;;7.70;;
67130;SDS011;54051;53.464;49.532;2022-07-11T14:19:26;11.20;;;7.90;;
67130;SDS011;54051;53.464;49.532;2022-07-11T14:21:53;11.20;;;8.05;;
67130;SDS011;54051;53.464;49.532;2022-07-11T14:24:20;10.90;;;7.78;;
67130;SDS011;54051;53.464;49.532;2022-07-11T14:26:46;11.18;;;7.57;;
67130;SDS011;54051;53.464;49.532;2022-07-11T14:29:13;11.30;;;7.88;;
67130;SDS011;54051;53.464;49.532;2022-07-11T14:31:40;10.60;;;7.72;;
67130;SDS011;54051;53.464;49.532;2022-07-11T14:34:06;10.45;;;8.00;;
67130;SDS011;54051;53.464;49.532;2022-07-11T14:36:33;10.05;;;7.72;;
67130;SDS011;54051;53.464;49.532;2022-07-11T14:38:59;10.68;;;8.00;;
67130;SDS011;54051;53.464;49.532;2022-07-11T14:41:26;12.25;;;8.60;;
67130;SDS011;54051;53.464;49.532;2022-07-11T14:43:52;9.93;;;8.00;;
67130;SDS011;54051;53.464;49.532;2022-07-11T14:46:38;10.57;;;8.48;;
67130;SDS011;54051;53.464;49.532;2022-07-11T14:49:04;10.60;;;8.82;;
67130;SDS011;54051;53.464;49.532;2022-07-11T14:51:36;11.68;;;9.77;;
67130;SDS011;54051;53.464;49.532;2022-07-11T14:54:04;15.43;;;10.15;;
67130;SDS011;54051;53.464;49.532;2022-07-11T14:56:31;12.60;;;10.15;;
67130;SDS011;54051;53.464;49.532;2022-07-11T14:58:57;12.07;;;10.10;;
67130;SDS011;54051;53.464;49.532;2022-07-11T15:01:25;11.45;;;9.40;;
67130;SDS011;54051;53.464;49.532;2022-07-11T15:03:51;15.23;;;10.23;;
67130;SDS011;54051;53.464;49.532;2022-07-11T15:06:18;14.00;;;10.88;;
67130;SDS011;54051;53.464;49.532;2022-07-11T15:11:28;14.02;;;9.75;;
67130;SDS011;54051;53.464;49.532;2022-07-11T15:14:13;14.77;;;10.85;;
67130;SDS011;54051;53.464;49.532;2022-07-11T15:16:41;13.85;;;10.43;;
67130;SDS011;54051;53.464;49.532;2022-07-11T15:19:07;13.95;;;10.30;;
67130;SDS011;54051;53.464;49.532;2022-07-11T15:24:00;13.50;;;10.52;;
67130;SDS011;54051;53.464;49.532;2022-07-11T15:26:27;14.40;;;10.50;;
67130;SDS011;54051;53.464;49.532;2022-07-11T15:28:53;15.23;;;11.02;;
67130;SDS011;54051;53.464;49.532;2022-07-11T15:31:20;14.75;;;10.90;;
67130;SDS011;54051;53.464;49.532;2022-07-11T15:33:48;13.13;;;10.52;;
67130;SDS011;54051;53.464;49.532;2022-07-11T15:36:15;15.43;;;10.93;;
67130;SDS011;54051;53.464;49.532;2022-07-11T15:38:43;14.27;;;11.40;;
67130;SDS011;54051;53.464;49.532;2022-07-11T15:41:13;14.73;;;11.57;;
67130;SDS011;54051;53.464;49.532;2022-07-11T15:43:40;14.43;;;11.85;;
67130;SDS011;54051;53.464;49.532;2022-07-11T15:46:06;15.27;;;11.38;;
67130;SDS011;54051;53.464;49.532;2022-07-11T15:48:33;17.77;;;11.40;;
67130;SDS011;54051;53.464;49.532;2022-07-11T15:50:59;14.10;;;11.57;;
67130;SDS011;54051;53.464;49.532;2022-07-11T15:55:51;15.55;;;11.65;;
67130;SDS011;54051;53.464;49.532;2022-07-11T16:00:43;15.73;;;12.20;;
67130;SDS011;54051;53.464;49.532;2022-07-11T16:05:35;17.20;;;12.30;;
67130;SDS011;54051;53.464;49.532;2022-07-11T16:08:04;17.58;;;12.30;;
67130;SDS011;54051;53.464;49.532;2022-07-11T16:10:30;16.77;;;12.40;;
67130;SDS011;54051;53.464;49.532;2022-07-11T16:15:22;18.27;;;12.43;;
67130;SDS011;54051;53.464;49.532;2022-07-11T16:17:48;17.15;;;12.93;;
67130;SDS011;54051;53.464;49.532;2022-07-11T16:20:15;19.60;;;13.00;;
67130;SDS011;54051;53.464;49.532;2022-07-11T16:25:10;20.73;;;13.35;;
67130;SDS011;54051;53.464;49.532;2022-07-11T16:27:37;19.58;;;14.18;;
67130;SDS011;54051;53.464;49.532;2022-07-11T16:30:04;20.58;;;15.75;;
67130;SDS011;54051;53.464;49.532;2022-07-11T16:32:31;23.20;;;16.52;;
67130;SDS011;54051;53.464;49.532;2022-07-11T16:34:57;25.13;;;17.08;;
67130;SDS011;54051;53.464;49.532;2022-07-11T16:39:52;28.00;;;18.33;;
67130;SDS011;54051;53.464;49.532;2022-07-11T16:42:36;30.35;;;17.40;;
67130;SDS011;54051;53.464;49.532;2022-07-11T16:45:22;22.13;;;16.60;;
67130;SDS011;54051;53.464;49.532;2022-07-11T16:47:50;20.50;;;15.70;;
67130;SDS011;54051;53.464;49.532;2022-07-11T16:50:16;22.98;;;16.58;;
67130;SDS011;54051;53.464;49.532;2022-07-11T16:52:42;20.17;;;15.20;;
67130;SDS011;54051;53.464;49.532;2022-07-11T16:57:36;18.52;;;13.80;;